Time;durP1;ratioP1;P1;durP2;ratioP2;P2;SDS_P1;SDS_P2;PMS_P1;PMS_P2;Temp;Humidity;BMP_temperature;BMP_pressure;BME280_temperature;BME280_humidity;BME280_pressure;Samples;Min_cycle;Max_cycle;Signal;HPM_P1;HPM_P2
2021/07/14 00:01:26;;;;;;;18.23;13.05;;;;;;;20.78;53.29;100495.94;3557989;40;20092;-73
2021/07/14 00:03:54;;;;;;;15.38;11.48;;;;;;;20.75;53.19;100501.88;3556713;40;20491;-73
2021/07/14 00:06:36;;;;;;;11.73;9.27;;;;;;;20.73;53.43;100504.03;3564364;40;20383;-74
2021/07/14 00:09:07;;;;;;;8.52;6.30;;;;;;;20.72;53.53;100505.09;3567768;40;20075;-74
2021/07/14 00:11:39;;;;;;;5.30;4.03;;;;;;;20.66;53.09;100504.03;3565041;40;20317;-74
2021/07/14 00:14:27;;;;;;;4.50;2.83;;;;;;;20.60;53.31;100493.72;3570065;40;20061;-74
2021/07/14 00:22:30;;;;;;;3.35;2.10;;;;;;;20.49;53.67;100515.69;3564527;40;20042;-75
2021/07/14 00:24:59;;;;;;;6.28;2.65;;;;;;;20.45;53.86;100512.44;3557606;40;20135;-74
2021/07/14 00:27:27;;;;;;;4.00;2.40;;;;;;;20.43;54.03;100499.81;3564022;40;20041;-74
2021/07/14 00:29:56;;;;;;;3.47;2.67;;;;;;;20.39;53.68;100496.59;3564040;40;20090;-74
2021/07/14 00:32:26;;;;;;;4.45;2.75;;;;;;;20.36;53.84;100501.69;3556071;40;20054;-75
2021/07/14 00:34:55;;;;;;;5.10;3.10;;;;;;;20.32;53.82;100515.16;3553606;40;20135;-74
2021/07/14 00:37:23;;;;;;;4.35;2.90;;;;;;;20.29;53.62;100521.13;3566410;40;20041;-74
2021/07/14 00:39:55;;;;;;;4.63;3.50;;;;;;;20.26;54.16;100513.19;3566742;40;20060;-74
2021/07/14 00:42:27;;;;;;;4.25;3.17;;;;;;;20.19;53.95;100512.25;3559366;40;20045;-75
2021/07/14 00:44:55;;;;;;;4.65;3.03;;;;;;;20.16;54.22;100502.44;3563816;40;20443;-75
2021/07/14 00:47:27;;;;;;;4.32;3.30;;;;;;;20.15;54.32;100508.19;3565967;40;20038;-74
2021/07/14 00:49:56;;;;;;;5.25;3.10;;;;;;;20.07;54.42;100500.88;3562113;40;20135;-74
2021/07/14 00:52:24;;;;;;;5.07;3.38;;;;;;;20.06;54.09;100501.94;3566019;40;20033;-74
2021/07/14 00:54:53;;;;;;;5.28;3.70;;;;;;;20.06;54.61;100512.19;3557130;40;20098;-74
2021/07/14 00:57:26;;;;;;;5.15;3.65;;;;;;;20.01;54.26;100500.84;3565205;40;20475;-74
2021/07/14 00:59:54;;;;;;;4.90;3.60;;;;;;;19.98;54.37;100501.22;3566881;40;20054;-74
2021/07/14 01:02:24;;;;;;;5.10;3.70;;;;;;;19.95;54.47;100513.59;3565212;40;20148;-76
2021/07/14 01:04:57;;;;;;;4.53;3.22;;;;;;;19.97;55.10;100519.81;3563144;40;20049;-73
2021/07/14 01:07:31;;;;;;;4.15;2.90;;;;;;;19.93;55.10;100512.91;3554871;40;20065;-73
2021/07/14 01:10:05;;;;;;;4.47;2.65;;;;;;;19.93;54.91;100524.03;3567009;40;20057;-74
2021/07/14 01:12:40;;;;;;;4.95;2.58;;;;;;;19.91;55.19;100521.47;3569328;40;20049;-74
2021/07/14 01:15:12;;;;;;;4.50;2.80;;;;;;;19.88;55.31;100521.00;3563785;40;20117;-73
2021/07/14 01:17:47;;;;;;;3.40;2.50;;;;;;;19.87;55.17;100527.63;3566208;40;20056;-73
2021/07/14 01:20:33;;;;;;;4.20;2.83;;;;;;;19.88;55.30;100521.88;3572619;40;20361;-74
2021/07/14 01:23:08;;;;;;;3.53;2.20;;;;;;;19.86;55.48;100521.19;3564947;40;20349;-74
2021/07/14 01:25:54;;;;;;;3.95;2.53;;;;;;;19.84;55.80;100515.00;3564948;40;20132;-74
2021/07/14 01:28:27;;;;;;;4.43;2.63;;;;;;;19.83;55.17;100513.31;3564474;40;20123;-73
2021/07/14 01:30:55;;;;;;;;;;;;;;;19.53;55.63;100520.06;3567165;40;20365;-74
2021/07/14 01:33:28;;;;;;;4.38;2.35;;;;;;;19.77;55.31;100522.41;3566226;40;19970;-74
2021/07/14 01:35:57;;;;;;;4.43;2.22;;;;;;;19.77;55.06;100518.78;3561984;40;20405;-74
2021/07/14 01:38:28;;;;;;;4.00;1.98;;;;;;;19.77;55.17;100516.84;3566082;40;20048;-73
2021/07/14 01:40:58;;;;;;;3.58;1.83;;;;;;;19.75;54.97;100510.66;3565578;40;20143;-74
2021/07/14 01:43:32;;;;;;;3.30;1.98;;;;;;;19.74;54.98;100505.31;3566619;40;20065;-74
2021/07/14 01:46:02;;;;;;;3.70;1.80;;;;;;;19.72;54.74;100501.88;3565159;40;20050;-74
2021/07/14 01:48:32;;;;;;;3.10;1.90;;;;;;;19.69;55.11;100500.34;3566091;40;20089;-74
2021/07/14 01:51:01;;;;;;;2.90;1.60;;;;;;;19.67;55.30;100490.53;3563683;40;20033;-74
2021/07/14 01:53:31;;;;;;;3.70;1.80;;;;;;;19.63;54.93;100481.75;3567791;40;20134;-74
2021/07/14 01:56:00;;;;;;;3.25;1.75;;;;;;;19.61;55.14;100475.53;3566446;40;20122;-73
2021/07/14 01:58:31;;;;;;;2.80;1.90;;;;;;;19.61;55.46;100474.66;3567858;40;20579;-73
2021/07/14 02:00:59;;;;;;;2.90;2.03;;;;;;;19.57;54.99;100479.78;3566750;40;20061;-73
2021/07/14 02:03:42;;;;;;;2.50;1.48;;;;;;;19.56;55.55;100480.81;3567075;40;20049;-73
2021/07/14 02:06:12;;;;;;;2.63;1.70;;;;;;;19.53;55.53;100484.00;3563774;40;20088;-73
2021/07/14 02:08:40;;;;;;;2.60;1.73;;;;;;;19.51;55.27;100483.34;3561293;40;20055;-73
2021/07/14 02:11:08;;;;;;;3.28;1.98;;;;;;;19.50;55.56;100481.59;3567227;40;20049;-73
2021/07/14 02:13:39;;;;;;;2.70;1.90;;;;;;;19.47;55.37;100480.06;3558618;40;20042;-73
2021/07/14 02:16:11;;;;;;;5.55;2.40;;;;;;;19.45;55.64;100487.72;3553052;40;20061;-73
2021/07/14 02:18:42;;;;;;;3.00;2.15;;;;;;;19.41;55.15;100494.75;3558235;40;20426;-73
2021/07/14 02:21:11;;;;;;;2.73;1.83;;;;;;;19.37;55.63;100490.66;3565441;40;20034;-74
2021/07/14 02:23:40;;;;;;;3.90;1.92;;;;;;;19.40;55.91;100478.31;3557144;40;20042;-74
2021/07/14 02:26:08;;;;;;;3.65;2.22;;;;;;;19.36;55.51;100482.53;3566821;40;20041;-72
2021/07/14 02:28:38;;;;;;;3.47;2.10;;;;;;;19.37;56.11;100493.41;3568053;40;20089;-73
2021/07/14 02:31:06;;;;;;;4.13;2.20;;;;;;;19.35;55.72;100486.38;3566800;40;20053;-73
2021/07/14 02:33:34;;;;;;;3.47;2.20;;;;;;;19.34;56.09;100493.84;3567349;40;20421;-73
2021/07/14 02:36:05;;;;;;;3.70;2.17;;;;;;;19.36;56.22;100501.94;3566912;40;20318;-73
2021/07/14 02:38:39;;;;;;;3.20;1.90;;;;;;;19.36;56.28;100504.72;3567352;40;20057;-73
2021/07/14 02:41:13;;;;;;;2.88;2.05;;;;;;;19.35;56.21;100503.84;3566629;40;20429;-73
2021/07/14 02:43:46;;;;;;;3.55;1.92;;;;;;;19.34;56.66;100498.53;3567776;40;20061;-73
2021/07/14 02:46:23;;;;;;;4.35;2.17;;;;;;;19.34;56.26;100492.97;3565044;40;20418;-73
2021/07/14 02:48:54;;;;;;;3.63;2.00;;;;;;;19.34;56.19;100487.44;3564232;40;20782;-73
2021/07/14 02:51:24;;;;;;;2.97;1.85;;;;;;;19.33;56.04;100492.13;3566460;40;20110;-73
2021/07/14 02:53:56;;;;;;;3.45;1.90;;;;;;;19.34;56.21;100487.44;3567416;40;20108;-73
2021/07/14 02:56:27;;;;;;;3.17;2.20;;;;;;;19.32;56.17;100492.31;3566205;40;20033;-73
2021/07/14 02:59:00;;;;;;;2.55;1.70;;;;;;;19.34;56.81;100479.09;3567172;40;20055;-73
2021/07/14 03:01:30;;;;;;;2.65;1.75;;;;;;;19.33;56.58;100483.78;3566375;40;20086;-73
2021/07/14 03:04:00;;;;;;;3.72;1.80;;;;;;;19.32;56.21;100470.97;3567701;40;20061;-73
2021/07/14 03:06:32;;;;;;;3.45;1.85;;;;;;;19.32;56.55;100473.75;3564465;40;20127;-73
2021/07/14 03:09:04;;;;;;;2.60;1.70;;;;;;;19.29;56.51;100470.50;3566754;40;20063;-73
2021/07/14 03:11:35;;;;;;;2.92;1.77;;;;;;;19.29;56.94;100478.81;3567832;40;20042;-73
2021/07/14 03:14:05;;;;;;;3.55;2.13;;;;;;;19.31;56.77;100482.28;3567907;40;20065;-73
2021/07/14 03:16:34;;;;;;;2.70;1.58;;;;;;;19.30;56.78;100469.47;3566355;40;20048;-73
2021/07/14 03:19:03;;;;;;;3.83;2.10;;;;;;;19.30;56.55;100464.78;3566960;40;20055;-73
2021/07/14 03:21:33;;;;;;;4.30;2.00;;;;;;;19.30;56.77;100473.09;3566023;40;20136;-73
2021/07/14 03:24:05;;;;;;;3.53;2.03;;;;;;;19.31;56.89;100473.94;3568180;40;20030;-73
2021/07/14 03:26:34;;;;;;;3.40;2.13;;;;;;;19.29;56.61;100470.50;3565360;40;20033;-73
2021/07/14 03:29:05;;;;;;;4.38;1.98;;;;;;;19.31;56.33;100471.19;3555409;40;20066;-73
2021/07/14 03:31:34;;;;;;;3.45;2.00;;;;;;;19.29;56.42;100467.72;3565760;40;20368;-73
2021/07/14 03:34:03;;;;;;;3.60;2.10;;;;;;;19.27;56.95;100456.84;3556218;40;20093;-73
2021/07/14 03:36:31;;;;;;;3.42;1.95;;;;;;;19.29;56.91;100464.97;3566611;40;20038;-73
2021/07/14 03:39:01;;;;;;;3.35;1.90;;;;;;;19.28;56.69;100460.47;3557975;40;20053;-73
2021/07/14 03:41:29;;;;;;;3.88;2.00;;;;;;;19.28;56.44;100466.00;3563449;40;20038;-73
2021/07/14 03:43:59;;;;;;;3.67;2.22;;;;;;;19.28;56.80;100457.69;3565998;40;20194;-73
2021/07/14 03:46:28;;;;;;;4.20;1.92;;;;;;;19.29;56.76;100462.19;3566799;40;20041;-73
2021/07/14 03:48:58;;;;;;;3.15;2.00;;;;;;;19.27;56.42;100454.06;3567710;40;20045;-74
2021/07/14 03:51:27;;;;;;;4.47;2.00;;;;;;;19.27;56.30;100461.53;3566369;40;20460;-73
2021/07/14 03:53:56;;;;;;;2.92;2.00;;;;;;;19.26;56.77;100451.50;3567641;40;20057;-73
2021/07/14 03:56:24;;;;;;;5.03;2.38;;;;;;;19.25;56.74;100458.97;3565076;40;20067;-73
2021/07/14 03:58:55;;;;;;;3.78;2.50;;;;;;;19.25;56.39;100463.66;3567290;40;20514;-74
2021/07/14 04:01:24;;;;;;;4.70;2.92;;;;;;;19.24;56.71;100462.81;3564095;40;20038;-73
2021/07/14 04:03:55;;;;;;;5.28;3.13;;;;;;;19.24;56.70;100457.25;3564229;40;20061;-73
2021/07/14 04:06:25;;;;;;;5.32;3.70;;;;;;;19.22;56.88;100462.13;3555551;40;20038;-73
2021/07/14 04:09:19;;;;;;;8.15;5.60;;;;;;;19.21;57.53;100457.63;3566135;40;20049;-73
2021/07/14 04:11:51;;;;;;;8.63;5.55;;;;;;;19.20;56.91;100459.56;3566214;40;20121;-72
2021/07/14 04:14:19;;;;;;;11.55;8.68;;;;;;;19.17;56.83;100453.56;3566525;40;20131;-73
2021/07/14 04:16:47;;;;;;;11.43;8.25;;;;;;;19.19;57.28;100454.19;3565665;40;20053;-72
2021/07/14 04:19:18;;;;;;;13.23;9.63;;;;;;;19.20;56.81;100462.31;3567309;40;20049;-73
2021/07/14 04:21:46;;;;;;;13.30;9.93;;;;;;;19.19;56.97;100455.06;3564595;40;20601;-72
2021/07/14 04:24:15;;;;;;;11.77;8.93;;;;;;;19.19;57.43;100451.41;3565611;40;20069;-73
2021/07/14 04:26:44;;;;;;;12.65;9.80;;;;;;;19.19;57.66;100443.09;3567563;40;20061;-73
2021/07/14 04:29:13;;;;;;;12.55;9.10;;;;;;;19.20;57.69;100454.00;3564687;40;20091;-72
2021/07/14 04:31:41;;;;;;;11.55;8.30;;;;;;;19.20;57.50;100451.22;3570676;40;20514;-73
2021/07/14 04:34:09;;;;;;;11.60;8.73;;;;;;;19.21;57.80;100441.00;3567812;40;20446;-72
2021/07/14 04:36:41;;;;;;;10.32;7.90;;;;;;;19.24;57.95;100445.31;3565824;40;20033;-72
2021/07/14 04:39:10;;;;;;;10.52;8.00;;;;;;;19.24;57.91;100450.84;3566043;40;20060;-72
2021/07/14 04:41:40;;;;;;;9.88;7.53;;;;;;;19.22;58.02;100448.25;3565431;40;20048;-72
2021/07/14 04:44:10;;;;;;;9.00;7.35;;;;;;;19.25;57.70;100453.44;3566335;40;20057;-72
2021/07/14 04:46:39;;;;;;;9.07;7.57;;;;;;;19.26;57.43;100454.28;3565400;40;20053;-72
2021/07/14 04:49:08;;;;;;;9.80;8.15;;;;;;;19.26;57.44;100457.06;3566422;40;20080;-73
2021/07/14 04:51:36;;;;;;;9.77;7.22;;;;;;;19.25;57.40;100450.66;3562344;40;20088;-73
2021/07/14 04:54:05;;;;;;;8.82;6.65;;;;;;;19.28;57.86;100464.09;3564141;40;20403;-73
2021/07/14 04:56:34;;;;;;;9.30;6.32;;;;;;;19.28;57.49;100455.78;3564420;40;20053;-73
2021/07/14 04:59:03;;;;;;;9.05;6.85;;;;;;;19.28;58.15;100455.78;3566156;40;20056;-73
2021/07/14 05:01:32;;;;;;;9.35;6.95;;;;;;;19.29;57.66;100448.31;3553385;40;20053;-73
2021/07/14 05:04:00;;;;;;;8.38;6.47;;;;;;;19.30;57.70;100450.03;3559751;40;20091;-73
2021/07/14 05:06:29;;;;;;;8.82;6.63;;;;;;;19.31;57.68;100446.22;3561623;40;20287;-73
2021/07/14 05:08:58;;;;;;;8.13;6.32;;;;;;;19.32;57.89;100453.47;3564210;40;20057;-72
2021/07/14 05:11:27;;;;;;;8.63;6.70;;;;;;;19.35;58.32;100459.47;3555393;40;20045;-72
2021/07/14 05:13:55;;;;;;;8.07;6.05;;;;;;;19.34;58.00;100454.16;3566002;40;20127;-72
2021/07/14 05:16:23;;;;;;;8.45;6.40;;;;;;;19.33;57.82;100458.84;3564124;40;20430;-72
2021/07/14 05:18:51;;;;;;;9.68;6.68;;;;;;;19.34;57.93;100445.81;3564380;40;20049;-73
2021/07/14 05:21:19;;;;;;;9.80;7.28;;;;;;;19.33;58.15;100461.59;3564887;40;20070;-73
2021/07/14 05:23:47;;;;;;;8.77;6.43;;;;;;;19.32;58.00;100457.13;3566407;40;20073;-72
2021/07/14 05:26:16;;;;;;;7.80;6.03;;;;;;;19.34;57.78;100459.69;3565248;40;20419;-73
2021/07/14 05:28:47;;;;;;;8.68;6.68;;;;;;;19.35;58.07;100462.25;3567275;40;20086;-73
2021/07/14 05:31:15;;;;;;;9.80;7.60;;;;;;;19.34;57.96;100459.69;3555419;40;20335;-73
2021/07/14 05:33:43;;;;;;;9.15;6.60;;;;;;;19.33;58.02;100458.84;3558354;40;20049;-73
2021/07/14 05:36:12;;;;;;;9.85;7.43;;;;;;;19.34;57.90;100465.25;3558367;40;20088;-73
2021/07/14 05:38:41;;;;;;;10.65;8.10;;;;;;;19.33;57.64;100467.16;3558368;40;20045;-73
2021/07/14 05:41:09;;;;;;;9.73;7.47;;;;;;;19.34;58.19;100468.00;3557494;40;20068;-73
2021/07/14 05:43:38;;;;;;;9.27;7.47;;;;;;;19.35;58.05;100473.34;3566990;40;20053;-73
2021/07/14 05:46:08;;;;;;;9.63;7.55;;;;;;;19.35;57.81;100467.78;3565615;40;20046;-73
2021/07/14 05:48:36;;;;;;;11.73;8.48;;;;;;;19.33;58.03;100469.94;3557971;40;20404;-73
2021/07/14 05:51:04;;;;;;;12.20;8.70;;;;;;;19.34;58.22;100468.00;3566467;40;20375;-73
2021/07/14 05:53:32;;;;;;;12.05;8.48;;;;;;;19.34;57.83;100463.31;3568078;40;20049;-73
2021/07/14 05:56:00;;;;;;;10.82;8.38;;;;;;;19.35;58.11;100469.72;3566642;40;20057;-73
2021/07/14 05:58:29;;;;;;;10.60;8.57;;;;;;;19.36;58.16;100471.44;3558469;40;20053;-72
2021/07/14 06:00:57;;;;;;;11.95;8.60;;;;;;;19.35;57.87;100469.72;3563328;40;20078;-72
2021/07/14 06:03:27;;;;;;;12.27;9.23;;;;;;;19.37;57.92;100465.69;3564814;40;20516;-76
2021/07/14 06:05:55;;;;;;;15.25;10.27;;;;;;;19.37;57.79;100465.69;3556767;40;20048;-78
2021/07/14 06:08:22;;;;;;;14.10;10.55;;;;;;;19.37;58.13;100465.69;3569630;40;20057;-77
2021/07/14 06:10:50;;;;;;;13.18;10.35;;;;;;;19.38;58.35;100464.63;3563140;40;20131;-77
2021/07/14 06:13:18;;;;;;;14.65;11.05;;;;;;;19.39;58.41;100465.50;3568613;40;20042;-77
2021/07/14 06:15:47;;;;;;;13.70;11.23;;;;;;;19.39;57.95;100466.34;3560083;40;20036;-78
2021/07/14 06:18:15;;;;;;;16.45;12.38;;;;;;;19.39;58.33;100462.72;3560772;40;20049;-79
2021/07/14 06:20:45;;;;;;;15.13;11.02;;;;;;;19.43;58.38;100472.38;3560491;40;20045;-78
2021/07/14 06:23:13;;;;;;;14.68;11.13;;;;;;;19.41;58.37;100474.47;3573854;40;20034;-78
2021/07/14 06:25:41;;;;;;;15.98;12.48;;;;;;;19.43;58.37;100472.38;3569257;40;20135;-77
2021/07/14 06:28:12;;;;;;;15.30;11.82;;;;;;;19.43;57.89;100470.44;3570013;40;20058;-77
2021/07/14 06:30:41;;;;;;;17.30;11.77;;;;;;;19.42;58.56;100468.72;3567580;40;20424;-78
2021/07/14 06:33:10;;;;;;;18.27;13.23;;;;;;;19.45;58.43;100478.56;3566739;40;20041;-79
2021/07/14 06:35:38;;;;;;;17.00;12.23;;;;;;;19.45;58.02;100467.47;3563297;40;20115;-78
2021/07/14 06:38:08;;;;;;;16.27;12.68;;;;;;;19.46;58.56;100466.41;3563888;40;20033;-79
2021/07/14 06:40:38;;;;;;;18.95;13.32;;;;;;;19.45;58.11;100475.78;3558390;40;20049;-77
2021/07/14 06:43:08;;;;;;;15.52;12.38;;;;;;;19.46;58.49;100475.59;3559729;40;20042;-78
2021/07/14 06:45:40;;;;;;;17.45;13.10;;;;;;;19.47;58.16;100468.13;3569548;40;20108;-79
2021/07/14 06:48:08;;;;;;;16.80;12.38;;;;;;;19.44;58.23;100474.91;3554654;40;20041;-78
2021/07/14 06:50:36;;;;;;;17.10;12.35;;;;;;;19.44;57.98;100469.38;3568830;40;20064;-78
2021/07/14 06:53:04;;;;;;;16.48;12.30;;;;;;;19.45;58.25;100478.56;3561765;40;21831;-77
2021/07/14 06:55:34;;;;;;;14.82;11.30;;;;;;;19.46;58.26;100474.72;3567833;40;20059;-76
2021/07/14 06:58:02;;;;;;;17.40;13.40;;;;;;;19.44;58.01;100480.47;3570492;40;20052;-76
2021/07/14 07:00:35;;;;;;;16.35;12.70;;;;;;;19.45;58.48;100481.31;3565805;40;20061;-77
2021/07/14 07:03:03;;;;;;;15.18;11.15;;;;;;;19.43;58.52;100486.25;3568128;40;20057;-77
2021/07/14 07:05:31;;;;;;;15.57;11.65;;;;;;;19.45;58.04;100481.31;3557851;40;20076;-78
2021/07/14 07:07:59;;;;;;;16.98;13.45;;;;;;;19.45;58.07;100484.09;3560061;40;20038;-77
2021/07/14 07:10:28;;;;;;;14.48;11.30;;;;;;;19.45;58.12;100482.19;3563867;40;20086;-79
2021/07/14 07:12:57;;;;;;;15.23;11.60;;;;;;;19.47;58.68;100490.31;3564703;40;20141;-78
2021/07/14 07:15:25;;;;;;;13.57;10.40;;;;;;;19.47;58.34;100490.31;3554711;40;20067;-78
2021/07/14 07:17:53;;;;;;;14.48;10.77;;;;;;;19.46;58.59;100489.44;3567154;40;20045;-77
2021/07/14 07:20:23;;;;;;;15.27;10.63;;;;;;;19.47;58.56;100495.88;3560645;40;20029;-77
2021/07/14 07:22:51;;;;;;;13.13;10.27;;;;;;;19.48;58.78;100486.47;3566292;40;20093;-75
2021/07/14 07:25:20;;;;;;;15.45;11.65;;;;;;;19.49;58.27;100490.97;3558921;40;20045;-75
2021/07/14 07:27:49;;;;;;;14.25;11.55;;;;;;;19.49;58.82;100488.22;3565560;40;20078;-74
2021/07/14 07:30:19;;;;;;;15.45;10.73;;;;;;;19.51;58.49;100488.91;3564329;40;20162;-74
2021/07/14 07:32:47;;;;;;;14.10;11.10;;;;;;;19.50;58.28;100492.69;3564809;40;20084;-75
2021/07/14 07:35:15;;;;;;;12.73;10.30;;;;;;;19.51;58.72;100495.28;3564358;40;20061;-74
2021/07/14 07:37:43;;;;;;;12.45;9.35;;;;;;;19.52;58.72;100490.59;3563340;40;20130;-74
2021/07/14 07:40:13;;;;;;;13.32;10.75;;;;;;;19.53;58.23;100492.31;3570723;40;20064;-75
2021/07/14 07:42:41;;;;;;;13.25;10.38;;;;;;;19.54;58.92;100496.81;3576240;40;20037;-74
2021/07/14 07:45:10;;;;;;;11.57;9.13;;;;;;;19.53;58.45;100489.53;3571595;40;20131;-74
2021/07/14 07:47:43;;;;;;;13.13;9.48;;;;;;;19.57;58.91;100490.88;3562916;40;20390;-75
2021/07/14 07:50:12;;;;;;;11.70;9.10;;;;;;;19.55;58.13;100482.75;3567465;40;20311;-74
2021/07/14 07:52:41;;;;;;;11.90;9.38;;;;;;;19.55;58.61;100492.97;3560804;40;20053;-75
2021/07/14 07:55:11;;;;;;;13.48;10.40;;;;;;;19.56;58.27;100483.59;3562143;40;20053;-74
2021/07/14 07:57:39;;;;;;;12.85;9.70;;;;;;;19.55;58.65;100490.22;3566742;40;20068;-74
2021/07/14 08:00:10;;;;;;;12.85;9.60;;;;;;;19.58;58.48;100489.81;3559202;40;20138;-74
2021/07/14 08:02:43;;;;;;;13.82;10.23;;;;;;;19.58;58.20;100480.63;3567431;40;20038;-74
2021/07/14 08:05:11;;;;;;;10.52;8.38;;;;;;;19.55;58.21;100485.53;3558180;40;20050;-74
2021/07/14 08:07:40;;;;;;;10.88;8.07;;;;;;;19.56;58.56;100487.25;3566416;40;20422;-74
2021/07/14 08:10:09;;;;;;;10.70;8.40;;;;;;;19.58;58.83;100486.19;3567531;40;20045;-74
2021/07/14 08:12:38;;;;;;;9.82;7.40;;;;;;;19.56;58.66;100487.25;3576188;40;20037;-74
2021/07/14 08:15:08;;;;;;;10.02;8.32;;;;;;;19.59;58.86;100487.91;3574633;40;20517;-74
2021/07/14 08:17:36;;;;;;;9.50;7.38;;;;;;;19.59;58.71;100485.13;3557424;40;20300;-74
2021/07/14 08:20:07;;;;;;;10.50;7.35;;;;;;;19.60;58.90;100484.03;3567482;40;20625;-74
2021/07/14 08:22:36;;;;;;;9.27;6.72;;;;;;;19.59;58.65;100485.13;3557260;40;20491;-74
2021/07/14 08:25:06;;;;;;;9.02;7.22;;;;;;;19.59;58.51;100486.00;3567629;40;20057;-74
2021/07/14 08:27:34;;;;;;;9.52;7.22;;;;;;;19.58;58.54;100480.63;3566507;40;20140;-75
2021/07/14 08:30:04;;;;;;;8.73;7.07;;;;;;;19.58;58.63;100478.72;3567295;40;20131;-74
2021/07/14 08:32:32;;;;;;;9.85;7.32;;;;;;;19.59;58.51;100485.13;3566882;40;20046;-74
2021/07/14 08:35:00;;;;;;;10.02;7.85;;;;;;;19.59;58.16;100476.81;3567413;40;20405;-74
2021/07/14 08:37:29;;;;;;;8.85;7.18;;;;;;;19.60;58.10;100484.03;3566636;40;20310;-74
2021/07/14 08:39:58;;;;;;;9.77;7.05;;;;;;;19.58;58.01;100487.03;3566960;40;20049;-75
2021/07/14 08:42:27;;;;;;;7.72;5.72;;;;;;;19.58;58.52;100494.50;3565592;40;20398;-74
2021/07/14 08:44:56;;;;;;;6.55;5.22;;;;;;;19.58;58.64;100487.03;3567239;40;20045;-75
2021/07/14 08:47:24;;;;;;;5.68;4.28;;;;;;;19.58;58.36;100491.72;3565906;40;20048;-76
2021/07/14 08:49:52;;;;;;;6.47;4.32;;;;;;;19.58;58.65;100488.97;3567197;40;20057;-75
2021/07/14 08:52:20;;;;;;;4.90;3.60;;;;;;;19.57;58.15;100485.31;3566701;40;20048;-75
2021/07/14 08:54:51;;;;;;;5.15;3.40;;;;;;;19.58;58.42;100492.59;3558378;40;20335;-74
2021/07/14 08:57:19;;;;;;;4.13;2.63;;;;;;;19.55;58.08;100490.22;3566199;40;20041;-74
2021/07/14 08:59:48;;;;;;;4.18;2.67;;;;;;;19.53;58.26;100492.31;3567098;40;20431;-75
2021/07/14 09:02:15;;;;;;;3.88;2.45;;;;;;;19.52;58.36;100480.34;3566880;40;20115;-75
2021/07/14 09:04:44;;;;;;;3.13;2.08;;;;;;;19.51;58.12;100481.41;3567062;40;20138;-75
2021/07/14 09:07:15;;;;;;;3.25;2.10;;;;;;;19.52;58.72;100479.50;3566146;40;20042;-75
2021/07/14 09:09:43;;;;;;;3.70;2.28;;;;;;;19.49;58.66;100479.88;3567561;40;20048;-75
2021/07/14 09:12:13;;;;;;;4.30;2.55;;;;;;;19.49;58.07;100486.28;3554691;40;20033;-74
2021/07/14 09:14:43;;;;;;;3.67;2.60;;;;;;;19.48;58.18;100483.72;3570368;40;20029;-74
2021/07/14 09:17:23;;;;;;;3.80;2.75;;;;;;;19.49;58.67;100485.44;3563027;40;20382;-75
2021/07/14 09:19:53;;;;;;;4.28;2.83;;;;;;;19.44;58.29;100486.00;3567783;40;20049;-75
2021/07/14 09:22:24;;;;;;;4.30;3.05;;;;;;;19.45;58.19;100484.09;3566564;40;20420;-74
2021/07/14 09:24:56;;;;;;;4.45;3.33;;;;;;;19.42;58.89;100477.06;3567383;40;20054;-74
2021/07/14 09:27:28;;;;;;;3.80;2.95;;;;;;;19.43;59.02;100483.47;3557183;40;20068;-75
2021/07/14 09:30:09;;;;;;;4.63;3.25;;;;;;;19.45;58.99;100481.31;3567090;40;20705;-74
2021/07/14 09:32:48;;;;;;;4.30;3.40;;;;;;;19.45;58.95;100484.09;3557084;40;20464;-75
2021/07/14 09:35:42;;;;;;;4.97;3.67;;;;;;;19.40;59.22;100483.84;3566954;40;20061;-75
2021/07/14 09:38:11;;;;;;;5.35;4.07;;;;;;;19.42;58.43;100479.84;3547532;40;20135;-74
2021/07/14 09:40:42;;;;;;;5.32;4.00;;;;;;;19.43;58.92;100483.47;3558657;40;20325;-75
2021/07/14 09:43:13;;;;;;;5.38;3.83;;;;;;;19.45;58.62;100481.31;3574438;40;20045;-75
2021/07/14 09:45:46;;;;;;;5.50;3.60;;;;;;;19.44;58.83;100482.38;3576124;40;20136;-75
2021/07/14 09:48:17;;;;;;;5.07;3.47;;;;;;;19.44;58.16;100477.69;3565884;40;20207;-74
2021/07/14 09:50:48;;;;;;;4.68;3.35;;;;;;;19.44;58.87;100482.38;3566431;40;20067;-75
2021/07/14 09:53:20;;;;;;;4.55;3.03;;;;;;;19.44;58.73;100483.25;3558337;40;20066;-75
2021/07/14 09:55:50;;;;;;;5.75;4.00;;;;;;;19.42;58.49;100478.97;3556261;40;20066;-75
2021/07/14 09:58:24;;;;;;;5.32;3.53;;;;;;;19.45;58.63;100486.88;3566254;40;20138;-74
2021/07/14 10:00:53;;;;;;;4.82;3.40;;;;;;;19.43;58.28;100486.25;3566239;40;20325;-74
2021/07/14 10:03:27;;;;;;;5.03;3.58;;;;;;;19.45;58.38;100486.88;3566033;40;20049;-75
2021/07/14 10:06:04;;;;;;;5.10;3.65;;;;;;;19.44;58.56;100487.94;3566117;40;20039;-74
2021/07/14 10:08:33;;;;;;;6.38;4.47;;;;;;;19.41;58.57;100488.34;3566837;40;20049;-74
2021/07/14 10:11:19;;;;;;;6.57;4.25;;;;;;;19.43;59.01;100489.84;3559251;40;20060;-74
2021/07/14 10:13:54;;;;;;;5.93;4.45;;;;;;;19.41;58.79;100489.22;3568835;40;20049;-74
2021/07/14 10:16:24;;;;;;;6.80;4.95;;;;;;;19.39;58.59;100488.53;3577705;40;20126;-74
2021/07/14 10:19:06;;;;;;;6.50;4.85;;;;;;;19.41;59.15;100483.66;3558273;40;20053;-74
2021/07/14 10:21:36;;;;;;;6.82;5.10;;;;;;;19.39;58.36;100485.75;3566629;40;20049;-74
2021/07/14 10:24:05;;;;;;;6.75;4.90;;;;;;;19.39;58.33;100487.69;3568224;40;20461;-74
2021/07/14 10:26:35;;;;;;;5.85;4.65;;;;;;;19.38;58.88;100491.50;3567459;40;20127;-74
2021/07/14 10:29:06;;;;;;;6.03;4.25;;;;;;;19.39;59.13;100499.63;3549151;40;20064;-74
2021/07/14 10:31:35;;;;;;;7.22;5.38;;;;;;;19.38;58.85;100492.38;3557693;40;20046;-74
2021/07/14 10:34:05;;;;;;;6.50;5.03;;;;;;;19.39;58.61;100496.00;3558249;40;20066;-74
2021/07/14 10:36:35;;;;;;;7.63;5.18;;;;;;;19.39;58.84;100504.31;3557581;40;20074;-74
2021/07/14 10:39:06;;;;;;;8.45;5.20;;;;;;;19.39;58.52;100499.63;3568543;40;20057;-74
2021/07/14 10:41:35;;;;;;;7.43;5.43;;;;;;;19.37;59.00;100501.75;3569490;40;20133;-74
2021/07/14 10:44:06;;;;;;;7.35;5.55;;;;;;;19.39;59.26;100498.78;3566475;40;20107;-74
2021/07/14 10:46:40;;;;;;;7.60;5.07;;;;;;;19.39;58.93;100496.84;3577745;40;20114;-74
2021/07/14 10:49:12;;;;;;;7.45;5.28;;;;;;;19.36;59.18;100499.16;3569257;40;20306;-75
2021/07/14 10:51:40;;;;;;;9.30;6.80;;;;;;;19.36;59.11;100494.47;3565596;40;20026;-74
2021/07/14 10:54:11;;;;;;;10.38;6.75;;;;;;;19.38;58.62;100492.38;3557684;40;20522;-74
2021/07/14 10:56:43;;;;;;;10.32;7.22;;;;;;;19.40;59.24;100486.63;3567097;40;20528;-74
2021/07/14 10:59:13;;;;;;;10.23;7.55;;;;;;;19.37;59.22;100484.25;3568050;40;20049;-74
2021/07/14 11:01:44;;;;;;;11.07;7.70;;;;;;;19.37;58.47;100487.00;3567641;40;20054;-75
2021/07/14 11:04:32;;;;;;;11.88;7.68;;;;;;;19.35;59.20;100492.75;3567904;40;20046;-75
2021/07/14 11:07:02;;;;;;;10.68;8.05;;;;;;;19.33;59.22;100492.13;3567241;40;20049;-74
2021/07/14 11:09:32;;;;;;;12.57;9.13;;;;;;;19.34;58.83;100488.28;3567569;40;20053;-74
2021/07/14 11:12:02;;;;;;;13.45;9.30;;;;;;;19.34;58.99;100487.44;3564416;40;20324;-75
2021/07/14 11:14:38;;;;;;;14.95;10.05;;;;;;;19.38;58.99;100488.72;3577466;40;20069;-74
2021/07/14 11:17:07;;;;;;;14.07;9.98;;;;;;;19.33;59.07;100492.13;3567736;40;20045;-75
2021/07/14 11:19:47;;;;;;;14.63;10.13;;;;;;;19.38;59.33;100488.72;3568661;40;20057;-74
2021/07/14 11:22:16;;;;;;;15.05;10.60;;;;;;;19.33;58.76;100486.56;3567213;40;20126;-74
2021/07/14 11:24:55;;;;;;;15.88;10.77;;;;;;;19.37;59.65;100492.56;3567660;40;20053;-74
2021/07/14 11:28:00;;;;;;;18.35;13.00;;;;;;;19.27;59.57;100486.47;3566919;40;20034;-75
2021/07/14 11:30:38;;;;;;;17.73;12.02;;;;;;;19.34;59.21;100488.28;3548276;40;20046;-75
2021/07/14 11:33:06;;;;;;;19.63;13.88;;;;;;;19.31;59.34;100485.03;3560136;40;20057;-74
2021/07/14 11:35:49;;;;;;;20.35;14.45;;;;;;;19.35;59.42;100495.53;3567050;40;20057;-75
2021/07/14 11:38:20;;;;;;;18.85;13.07;;;;;;;19.32;59.42;100489.53;3567932;40;20410;-74
2021/07/14 11:40:50;;;;;;;18.15;13.05;;;;;;;19.35;59.32;100489.16;3569047;40;20063;-74
2021/07/14 11:43:30;;;;;;;17.50;12.68;;;;;;;19.37;59.37;100495.34;3575600;40;20083;-74